Estación Meteorológica Peña el Pijo (Robertgarden) [ 05/25/19 23:25:27 CEST ]

Fecha Hora Presion(HPa) Temp (°C) Humedad % Rocio (°C) Viento ( m/s) Direccion Lluvia 1Hora(mm) Lluvia 24H(mm) LLuvia Total(mm)
2019-May-07 01:01:43 1011.000 11.9 61 4.6         318.05
2019-May-07 02:01:47 1010.800 11.9 66 5.7         318.05
2019-May-07 03:10:03 1010.300 11.8 65 5.4         318.05
2019-May-07 04:01:40 1010.100 11.3 63 4.5         318.05
2019-May-07 05:01:42 1010.000 11.2 62 4.1         318.05
2019-May-07 06:01:43 1009.800 11.1 63 4.3         318.05
2019-May-07 07:01:40 1009.800 11.6 67 5.7         318.05
2019-May-07 08:01:52 1010.300 10.8 70 5.6         318.05
2019-May-07 09:01:47 1009.900 14.3 60 6.7         318.05
2019-May-07 10:01:41 1009.800 19.8 41 6.1         318.05
2019-May-07 11:01:56 1009.300 22.9 24 1.1         318.05
2019-May-07 12:01:49 1009.500 24.1 21 0.4 2.4 NE     318.05
2019-May-07 13:01:50 1009.400 26.4 18 -0.2         318.05
2019-May-07 14:01:37 1008.800 26.5 18 -0.1         318.05
2019-May-07 15:01:55 1008.400 27.8 21 3.5         318.05
2019-May-07 16:01:51 1008.200 28.6 22 4.6         318.05
2019-May-07 17:01:34 1007.600 28.8 22 4.8         318.05
2019-May-07 18:01:33 1007.200 26.8 23 3.8         318.05
2019-May-07 19:01:39 1007.600 25.6 25 3.9         318.05
2019-May-07 20:01:28 1007.300 22.4 30 4.1         318.05
2019-May-07 21:01:25 1007.700 19.6 38 4.8         318.05
2019-May-07 22:01:16 1008.400 15.9 52 5.8         318.05
2019-May-07 23:01:25 1008.900 14.3 60 6.7         318.05

Temperatura Máxima:28°    Temperatura Mínima:10°
Presión Máxima:1011.000 Hpa    Presión Mínima:1007.200 Hpa


Volver